Time;durP1;ratioP1;P1;durP2;ratioP2;P2;SDS_P1;SDS_P2;PMS_P1;PMS_P2;Temp;Humidity;BMP_temperature;BMP_pressure;BME280_temperature;BME280_humidity;BME280_pressure;Samples;Min_cycle;Max_cycle;Signal;HPM_P1;HPM_P2
2022/05/29 00:01:32;;;;;;;0.80;0.80;;;11.80;71.90;;;;;;5087188;28;20782;-87
2022/05/29 00:03:59;;;;;;;0.97;0.80;;;11.80;72.40;;;;;;5104489;28;20629;-86
2022/05/29 00:06:26;;;;;;;0.60;0.60;;;11.90;71.90;;;;;;5088003;28;20692;-87
2022/05/29 00:08:53;;;;;;;0.50;0.50;;;12.00;72.90;;;;;;5089964;28;20617;-87
2022/05/29 00:11:22;;;;;;;0.60;0.60;;;12.00;72.90;;;;;;5107625;28;21174;-87
2022/05/29 00:13:50;;;;;;;0.63;0.60;;;12.00;74.80;;;;;;5101465;28;20623;-87
2022/05/29 00:16:18;;;;;;;0.63;0.63;;;11.90;73.00;;;;;;5087842;28;20624;-86
2022/05/29 00:18:45;;;;;;;1.10;1.00;;;11.80;74.10;;;;;;5103251;28;20650;-87
2022/05/29 00:21:13;;;;;;;0.80;0.80;;;11.90;75.00;;;;;;5103487;28;21174;-87
2022/05/29 00:23:43;;;;;;;0.50;0.50;;;11.90;75.30;;;;;;5107224;28;20647;-87
2022/05/29 00:26:11;;;;;;;0.93;0.87;;;11.80;74.10;;;;;;5091381;28;20992;-88
2022/05/29 00:28:40;;;;;;;3.03;0.90;;;11.20;74.20;;;;;;5110263;28;21225;-87
2022/05/29 00:31:08;;;;;;;2.43;1.17;;;11.90;75.00;;;;;;5092125;28;20718;-87
2022/05/29 00:33:36;;;;;;;1.50;1.10;;;11.90;76.40;;;;;;5093361;28;20619;-87
2022/05/29 00:36:03;;;;;;;1.63;1.53;;;11.90;76.10;;;;;;5095930;28;20614;-87
2022/05/29 00:38:42;;;;;;;0.80;0.80;;;11.70;73.30;;;;;;5111424;28;20725;-87
2022/05/29 00:41:18;;;;;;;1.43;1.33;;;11.70;74.00;;;;;;5102648;28;20728;-87
2022/05/29 00:43:56;;;;;;;0.80;0.80;;;11.80;75.20;;;;;;5107118;28;20994;-86
2022/05/29 00:46:23;;;;;;;1.37;1.00;;;11.30;75.10;;;;;;5104910;28;20627;-87
2022/05/29 00:48:51;;;;;;;0.80;0.80;;;11.40;75.60;;;;;;5106139;28;20632;-87
2022/05/29 00:51:22;;;;;;;2.63;1.57;;;11.50;75.30;;;;;;5093050;28;21316;-86
2022/05/29 00:53:50;;;;;;;0.50;0.50;;;11.50;75.30;;;;;;5106809;28;20625;-87
2022/05/29 00:56:18;;;;;;;0.70;0.70;;;11.60;76.10;;;;;;5096667;28;21229;-87
2022/05/29 00:58:46;;;;;;;2.00;0.80;;;11.60;76.30;;;;;;5108001;28;20648;-86
2022/05/29 01:01:13;;;;;;;1.60;1.50;;;11.60;75.40;;;;;;5090400;28;20626;-87
2022/05/29 01:03:40;;;;;;;0.70;0.70;;;11.60;75.10;;;;;;5091319;28;20660;-86
2022/05/29 01:06:07;;;;;;;1.63;1.10;;;11.60;75.70;;;;;;5110455;28;20643;-86
2022/05/29 01:08:37;;;;;;;0.70;0.70;;;11.90;76.00;;;;;;5092414;28;20723;-86
2022/05/29 01:11:21;;;;;;;1.17;1.00;;;11.70;75.70;;;;;;5106301;28;20639;-86
2022/05/29 01:14:13;;;;;;;0.97;0.97;;;11.80;77.30;;;;;;5107743;28;20622;-87
2022/05/29 01:16:51;;;;;;;2.40;1.23;;;11.60;76.70;;;;;;5091273;28;20617;-87
2022/05/29 01:20:03;;;;;;;0.93;0.80;;;11.70;75.40;;;;;;5111227;28;21073;-86
2022/05/29 01:23:13;;;;;;;1.37;1.00;;;11.70;76.50;;;;;;5036221;28;20691;-86
2022/05/29 01:26:02;;;;;;;0.93;0.93;;;11.80;78.10;;;;;;5087361;28;21234;-86
2022/05/29 01:28:49;;;;;;;1.43;1.13;;;11.70;78.50;;;;;;5108578;28;20655;-86
2022/05/29 01:31:38;;;;;;;1.67;0.97;;;11.80;77.60;;;;;;5109269;28;20628;-86
2022/05/29 01:34:25;;;;;;;1.00;0.80;;;11.70;75.30;;;;;;5109057;28;20723;-86
2022/05/29 01:37:08;;;;;;;1.37;1.27;;;11.70;76.50;;;;;;5109030;28;20633;-87
2022/05/29 01:39:39;;;;;;;0.90;0.90;;;11.70;77.90;;;;;;5110265;27;20633;-86
2022/05/29 01:42:13;;;;;;;0.60;0.60;;;11.80;77.70;;;;;;5110769;28;20661;-87
2022/05/29 01:44:46;;;;;;;1.00;0.93;;;11.90;74.60;;;;;;5108756;27;21016;-86
2022/05/29 01:47:19;;;;;;;0.93;0.93;;;11.90;73.50;;;;;;5110330;28;21194;-87
2022/05/29 01:49:50;;;;;;;1.00;1.00;;;11.80;79.80;;;;;;5094114;28;21030;-86
2022/05/29 01:52:25;;;;;;;0.77;0.77;;;11.80;78.20;;;;;;5104095;28;20661;-86
2022/05/29 01:54:58;;;;;;;1.80;1.57;;;11.70;78.20;;;;;;5106597;28;20629;-86
2022/05/29 01:57:30;;;;;;;0.77;0.67;;;11.60;78.30;;;;;;5091148;28;20613;-86
2022/05/29 02:00:02;;;;;;;0.80;0.80;;;11.40;77.70;;;;;;5089467;28;20633;-86
2022/05/29 02:02:35;;;;;;;1.17;1.17;;;11.40;79.60;;;;;;5090289;28;20658;-86
2022/05/29 02:05:08;;;;;;;2.10;1.17;;;11.40;79.20;;;;;;5091194;28;20742;-86
2022/05/29 02:07:50;;;;;;;1.37;1.20;;;11.20;78.60;;;;;;5101288;28;21128;-86
2022/05/29 02:10:29;;;;;;;1.33;1.10;;;11.30;77.50;;;;;;5110159;27;20627;-86
2022/05/29 02:13:03;;;;;;;0.93;0.93;;;11.20;77.40;;;;;;5102164;28;20626;-87
2022/05/29 02:15:39;;;;;;;1.10;1.00;;;11.10;78.20;;;;;;5102527;28;20981;-87
2022/05/29 02:18:11;;;;;;;0.70;0.60;;;11.10;78.80;;;;;;5093924;28;21077;-87
2022/05/29 02:20:42;;;;;;;0.63;0.63;;;11.10;78.30;;;;;;5098932;28;20620;-86
2022/05/29 02:23:13;;;;;;;0.87;0.80;;;11.20;79.20;;;;;;5109129;28;21226;-86
2022/05/29 02:25:41;;;;;;;1.37;1.27;;;11.10;77.40;;;;;;5090625;28;20637;-86
2022/05/29 02:28:11;;;;;;;1.60;1.50;;;11.10;79.00;;;;;;5101087;28;20613;-87
2022/05/29 02:30:47;;;;;;;1.33;1.13;;;11.10;80.60;;;;;;5102930;28;20621;-86
2022/05/29 02:33:19;;;;;;;1.97;1.87;;;11.00;80.80;;;;;;5090665;28;21031;-86
2022/05/29 02:35:54;;;;;;;1.20;1.10;;;10.90;81.40;;;;;;5089944;28;20675;-87
2022/05/29 02:38:29;;;;;;;1.00;0.90;;;10.80;81.60;;;;;;5090970;28;20652;-86
2022/05/29 02:41:00;;;;;;;1.53;1.10;;;10.70;82.40;;;;;;5099457;28;20627;-86
2022/05/29 02:43:36;;;;;;;0.80;0.80;;;10.70;82.10;;;;;;5108697;28;20667;-87
2022/05/29 02:46:16;;;;;;;0.80;0.80;;;10.60;81.70;;;;;;5096288;28;20628;-86
2022/05/29 02:48:50;;;;;;;1.20;1.10;;;10.70;83.40;;;;;;5102500;28;20947;-86
2022/05/29 02:51:23;;;;;;;1.50;1.37;;;10.80;82.80;;;;;;5090332;28;21269;-86
2022/05/29 02:53:50;;;;;;;2.17;1.33;;;10.80;82.90;;;;;;5093074;28;20963;-86
2022/05/29 02:56:18;;;;;;;2.33;1.50;;;10.90;82.70;;;;;;5099963;28;20647;-87
2022/05/29 02:58:48;;;;;;;1.87;1.50;;;10.90;81.40;;;;;;5091848;28;20612;-86
2022/05/29 03:01:32;;;;;;;1.03;1.00;;;10.90;82.20;;;;;;5108915;27;20704;-86
2022/05/29 03:04:18;;;;;;;1.30;1.20;;;10.90;81.00;;;;;;5107427;28;20667;-86
2022/05/29 03:06:51;;;;;;;1.53;1.17;;;11.00;81.60;;;;;;5107724;28;20611;-86
2022/05/29 03:09:39;;;;;;;1.37;1.27;;;10.90;80.70;;;;;;5089062;28;20624;-86
2022/05/29 03:12:13;;;;;;;10.13;1.33;;;10.20;80.40;;;;;;5102784;28;20627;-87
2022/05/29 03:14:44;;;;;;;0.90;0.90;;;10.70;82.20;;;;;;5098188;28;20656;-87
2022/05/29 03:17:21;;;;;;;0.97;0.90;;;10.60;78.80;;;;;;5088431;28;20685;-87
2022/05/29 03:19:59;;;;;;;1.17;0.90;;;11.00;79.80;;;;;;5088935;28;20624;-86
2022/05/29 03:22:37;;;;;;;0.80;0.80;;;10.60;79.30;;;;;;5095011;28;20686;-87
2022/05/29 03:25:10;;;;;;;0.80;0.73;;;10.60;79.90;;;;;;5103014;28;20624;-86
2022/05/29 03:27:40;;;;;;;1.07;0.93;;;10.50;78.70;;;;;;5096119;28;20708;-86
2022/05/29 03:30:11;;;;;;;1.57;1.10;;;10.50;79.00;;;;;;5088857;28;20656;-87
2022/05/29 03:32:40;;;;;;;0.80;0.80;;;10.50;79.10;;;;;;5092944;28;20980;-87
2022/05/29 03:35:29;;;;;;;1.27;0.80;;;10.40;78.90;;;;;;5096982;28;20628;-87
2022/05/29 03:37:57;;;;;;;0.60;0.60;;;10.20;79.20;;;;;;5093856;28;20613;-85
2022/05/29 03:40:25;;;;;;;1.57;1.10;;;10.30;79.40;;;;;;5104259;28;20622;-87
2022/05/29 03:42:53;;;;;;;1.27;1.17;;;;;;;;;;5106175;28;20661;-87
2022/05/29 03:45:20;;;;;;;1.50;1.40;;;10.30;78.40;;;;;;5096722;28;20630;-87
2022/05/29 03:47:49;;;;;;;0.60;0.60;;;10.00;81.60;;;;;;5106856;28;20615;-87
2022/05/29 03:50:21;;;;;;;0.93;0.90;;;9.90;84.00;;;;;;5094312;28;20670;-87
2022/05/29 03:52:49;;;;;;;1.53;0.90;;;9.80;80.10;;;;;;5108284;28;20897;-87
2022/05/29 03:55:22;;;;;;;0.63;0.63;;;10.20;78.70;;;;;;5091708;28;20628;-87
2022/05/29 03:57:49;;;;;;;0.87;0.87;;;10.20;79.00;;;;;;5098359;28;20657;-87
2022/05/29 04:00:17;;;;;;;0.70;0.70;;;10.30;79.30;;;;;;5101427;28;20655;-87
2022/05/29 04:02:45;;;;;;;1.37;1.20;;;10.20;78.40;;;;;;5110792;28;20695;-87
2022/05/29 04:05:19;;;;;;;1.23;1.13;;;10.30;79.80;;;;;;5099514;28;20962;-88
2022/05/29 04:13:16;;;;;;;1.63;1.00;;;10.20;78.00;;;;;;5098249;28;20637;-86
2022/05/29 04:15:46;;;;;;;1.37;1.20;;;10.10;77.80;;;;;;5101935;28;20751;-86
2022/05/29 04:18:14;;;;;;;1.60;1.27;;;10.10;78.30;;;;;;5110624;27;20730;-88
2022/05/29 04:20:42;;;;;;;1.00;1.00;;;10.10;78.10;;;;;;5093905;28;20652;-87
2022/05/29 04:23:09;;;;;;;1.30;1.20;;;10.00;78.20;;;;;;5100537;28;20638;-87
2022/05/29 04:25:36;;;;;;;1.33;1.23;;;10.10;79.00;;;;;;5091412;28;20651;-87
2022/05/29 04:28:03;;;;;;;1.83;1.10;;;10.30;78.90;;;;;;5101214;28;20674;-88
2022/05/29 04:30:31;;;;;;;0.90;0.83;;;10.20;78.60;;;;;;5094477;28;21269;-87
2022/05/29 04:33:00;;;;;;;0.80;0.80;;;10.30;78.30;;;;;;5099373;28;21193;-87
2022/05/29 04:35:28;;;;;;;1.10;0.90;;;10.30;78.50;;;;;;5091668;28;20751;-87
2022/05/29 04:37:56;;;;;;;1.27;1.17;;;10.20;78.50;;;;;;5105353;28;20693;-87
2022/05/29 04:40:23;;;;;;;2.63;1.50;;;10.30;78.80;;;;;;5096720;28;21243;-87
2022/05/29 04:42:50;;;;;;;1.70;1.60;;;11.10;80.30;;;;;;5111196;28;21015;-87
2022/05/29 04:45:20;;;;;;;1.27;1.17;;;10.00;79.50;;;;;;5111342;28;20663;-87
2022/05/29 04:47:47;;;;;;;1.30;1.20;;;10.00;80.30;;;;;;5110173;27;20637;-87
2022/05/29 04:50:14;;;;;;;1.17;1.10;;;10.10;80.40;;;;;;5110526;28;20612;-87
2022/05/29 04:52:41;;;;;;;1.33;1.13;;;9.90;81.50;;;;;;5097401;28;20602;-86
2022/05/29 04:55:10;;;;;;;5.40;1.53;;;10.00;80.50;;;;;;5095374;28;20652;-86
2022/05/29 04:57:37;;;;;;;1.00;1.00;;;10.00;80.50;;;;;;5101263;28;20622;-87
2022/05/29 05:00:05;;;;;;;1.00;0.90;;;10.10;80.80;;;;;;5111305;28;20725;-86
2022/05/29 05:02:34;;;;;;;1.67;1.57;;;10.10;80.40;;;;;;5094066;28;21008;-86
2022/05/29 05:05:01;;;;;;;1.30;1.20;;;10.20;81.90;;;;;;5106738;28;20632;-86
2022/05/29 05:07:28;;;;;;;1.03;1.03;;;10.20;81.60;;;;;;5105652;28;21235;-86
2022/05/29 05:09:55;;;;;;;0.80;0.80;;;10.30;81.70;;;;;;5103338;28;20615;-86
2022/05/29 05:12:24;;;;;;;1.03;0.90;;;10.40;81.60;;;;;;5098350;28;20731;-86
2022/05/29 05:14:51;;;;;;;1.20;0.90;;;10.20;81.80;;;;;;5111656;28;20687;-86
2022/05/29 05:17:20;;;;;;;1.47;1.37;;;10.20;82.20;;;;;;5111212;28;20622;-86
2022/05/29 05:19:47;;;;;;;1.20;1.00;;;10.20;82.80;;;;;;5110541;28;20619;-86
2022/05/29 05:22:15;;;;;;;0.90;0.90;;;10.10;83.00;;;;;;5111043;28;20607;-86
2022/05/29 05:24:42;;;;;;;1.50;1.40;;;10.10;84.30;;;;;;5104569;28;20749;-86
2022/05/29 05:27:09;;;;;;;0.83;0.83;;;10.20;84.60;;;;;;5110775;28;20611;-85
2022/05/29 05:29:37;;;;;;;1.13;1.13;;;10.20;84.40;;;;;;5099662;28;20616;-86
2022/05/29 05:32:05;;;;;;;1.43;1.33;;;10.40;84.20;;;;;;5090941;28;20627;-86
2022/05/29 05:34:32;;;;;;;1.20;1.10;;;10.40;83.30;;;;;;5093860;28;20608;-85
2022/05/29 05:36:59;;;;;;;0.97;0.97;;;10.60;83.00;;;;;;5105384;28;21017;-86
2022/05/29 05:39:26;;;;;;;1.47;1.10;;;10.70;83.00;;;;;;5111326;28;20639;-86
2022/05/29 05:41:53;;;;;;;1.13;0.80;;;10.60;82.30;;;;;;5109492;28;20608;-85
2022/05/29 05:44:21;;;;;;;0.70;0.70;;;10.70;82.50;;;;;;5111033;28;20663;-87
2022/05/29 05:46:53;;;;;;;1.40;1.20;;;10.80;82.90;;;;;;5091226;28;21171;-85
2022/05/29 05:49:21;;;;;;;1.30;1.10;;;10.80;83.60;;;;;;5110909;28;20715;-86
2022/05/29 05:51:50;;;;;;;2.57;2.37;;;10.60;83.30;;;;;;5095225;28;20609;-85
2022/05/29 05:54:17;;;;;;;1.40;1.30;;;10.80;84.20;;;;;;5111116;28;20727;-85
2022/05/29 05:56:47;;;;;;;1.17;1.17;;;10.80;83.40;;;;;;5095129;28;20620;-87
2022/05/29 05:59:14;;;;;;;1.20;1.10;;;11.00;84.20;;;;;;5108575;28;20799;-86
2022/05/29 06:01:42;;;;;;;1.37;0.90;;;11.10;84.30;;;;;;5089286;28;20626;-86
2022/05/29 06:04:10;;;;;;;1.00;0.90;;;11.20;82.20;;;;;;5089419;28;20684;-86
2022/05/29 06:06:37;;;;;;;1.13;1.03;;;11.20;81.80;;;;;;5106011;28;20677;-86
2022/05/29 06:09:04;;;;;;;1.17;1.07;;;11.10;81.60;;;;;;5096361;28;21246;-86
2022/05/29 06:11:32;;;;;;;1.60;1.50;;;10.90;81.10;;;;;;5109344;28;20677;-87
2022/05/29 06:13:58;;;;;;;1.27;1.00;;;10.80;80.80;;;;;;5091798;28;20668;-86
2022/05/29 06:16:25;;;;;;;0.60;0.60;;;10.50;80.70;;;;;;5101947;28;20651;-86
2022/05/29 06:18:53;;;;;;;1.17;1.07;;;10.60;80.40;;;;;;5104372;28;20729;-85
2022/05/29 06:21:21;;;;;;;0.80;0.73;;;10.60;80.30;;;;;;5110038;28;21080;-86
2022/05/29 06:23:48;;;;;;;0.53;0.50;;;10.50;81.30;;;;;;5096384;28;20652;-86
2022/05/29 06:26:15;;;;;;;0.80;0.63;;;10.50;81.60;;;;;;5089133;28;20680;-86
2022/05/29 06:28:43;;;;;;;0.60;0.50;;;10.50;82.50;;;;;;5107676;28;20616;-85
2022/05/29 06:31:12;;;;;;;1.08;0.98;;;10.90;82.60;;;;;;5094132;28;20741;-87
2022/05/29 06:33:39;;;;;;;1.20;1.10;;;11.00;81.60;;;;;;5110235;28;20289;-87
2022/05/29 06:36:08;;;;;;;2.13;1.00;;;11.10;81.30;;;;;;5107365;28;20655;-87
2022/05/29 06:38:36;;;;;;;1.13;1.03;;;11.10;80.60;;;;;;5101765;28;20620;-86
2022/05/29 06:41:05;;;;;;;1.57;1.00;;;11.10;81.20;;;;;;5108630;28;21173;-86
2022/05/29 06:43:32;;;;;;;1.50;1.40;;;11.20;82.00;;;;;;5102831;28;20701;-86
2022/05/29 06:46:00;;;;;;;1.00;0.97;;;11.10;81.60;;;;;;5109245;28;20611;-85
2022/05/29 06:48:27;;;;;;;1.60;1.50;;;11.20;82.20;;;;;;5096087;28;21015;-86
2022/05/29 06:50:54;;;;;;;1.23;1.20;;;11.40;81.50;;;;;;5109706;28;20623;-85
2022/05/29 06:53:21;;;;;;;0.70;0.67;;;11.40;82.10;;;;;;5093447;28;20629;-86
2022/05/29 06:55:53;;;;;;;0.77;0.77;;;11.50;82.20;;;;;;5089145;28;20634;-86
2022/05/29 06:58:21;;;;;;;0.80;0.70;;;11.50;81.10;;;;;;5104947;28;20858;-86
2022/05/29 07:09:04;;;;;;;1.30;0.90;;;12.10;80.60;;;;;;5095975;28;20669;-86
2022/05/29 07:11:36;;;;;;;2.27;1.80;;;12.00;79.30;;;;;;5088626;28;20630;-87
2022/05/29 07:14:05;;;;;;;1.13;0.97;;;12.10;79.60;;;;;;5088512;28;20668;-86
2022/05/29 07:16:32;;;;;;;1.67;1.20;;;12.10;79.20;;;;;;5088095;28;21000;-87
2022/05/29 07:18:59;;;;;;;1.40;0.90;;;12.20;79.30;;;;;;5088773;28;20654;-87
2022/05/29 07:21:28;;;;;;;0.80;0.63;;;12.20;79.50;;;;;;5088974;28;20631;-86
2022/05/29 07:23:55;;;;;;;1.30;1.20;;;12.20;77.00;;;;;;5090741;28;20661;-86
2022/05/29 07:26:22;;;;;;;0.73;0.73;;;12.20;77.90;;;;;;5088484;28;20665;-85
2022/05/29 07:28:51;;;;;;;1.37;1.27;;;12.30;77.40;;;;;;5088431;28;20634;-87
2022/05/29 07:31:18;;;;;;;0.93;0.90;;;12.60;76.80;;;;;;5091436;28;20786;-87
2022/05/29 07:33:45;;;;;;;0.67;0.67;;;12.60;75.80;;;;;;5107483;28;20617;-85
2022/05/29 07:36:13;;;;;;;0.70;0.70;;;12.60;76.80;;;;;;5103874;28;20646;-86
2022/05/29 07:38:40;;;;;;;1.70;1.43;;;12.50;77.20;;;;;;5094084;28;20958;-86
2022/05/29 07:43:48;;;;;;;1.30;1.00;;;12.70;76.80;;;;;;5087446;28;20682;-87
2022/05/29 07:46:16;;;;;;;2.40;0.70;;;12.80;76.40;;;;;;5091983;28;20629;-87
2022/05/29 07:48:43;;;;;;;0.83;0.70;;;12.80;75.00;;;;;;5108298;28;20603;-86
2022/05/29 07:51:10;;;;;;;2.50;1.30;;;12.90;75.20;;;;;;5108874;28;20935;-87
2022/05/29 07:53:37;;;;;;;1.17;0.90;;;13.20;75.80;;;;;;5108191;28;20620;-87
2022/05/29 07:56:05;;;;;;;0.93;0.67;;;13.30;75.40;;;;;;5102403;28;21042;-87
2022/05/29 07:58:33;;;;;;;0.83;0.83;;;13.00;75.90;;;;;;5101465;28;20616;-87
2022/05/29 08:01:01;;;;;;;0.73;0.73;;;12.80;75.70;;;;;;5090903;28;20622;-87
2022/05/29 08:03:30;;;;;;;0.73;0.73;;;12.90;74.80;;;;;;5089704;28;20633;-86
2022/05/29 08:05:57;;;;;;;1.40;1.30;;;12.80;73.70;;;;;;5088017;28;20652;-87
2022/05/29 08:08:24;;;;;;;1.90;1.10;;;12.30;75.70;;;;;;5092758;28;20663;-85
2022/05/29 08:10:52;;;;;;;0.77;0.70;;;12.40;74.10;;;;;;5092715;28;20654;-87
2022/05/29 08:13:19;;;;;;;1.57;1.40;;;12.20;72.90;;;;;;5107974;28;21224;-86
2022/05/29 08:15:46;;;;;;;1.33;1.23;;;12.40;74.90;;;;;;5096692;28;20703;-84
2022/05/29 08:18:13;;;;;;;1.13;1.03;;;12.30;79.40;;;;;;5089027;28;20734;-87
2022/05/29 08:20:41;;;;;;;1.70;0.80;;;12.30;77.80;;;;;;5102262;28;20657;-85
2022/05/29 08:23:08;;;;;;;1.00;0.90;;;12.00;77.90;;;;;;5100978;28;20737;-86
2022/05/29 08:31:05;;;;;;;0.83;0.80;;;12.20;80.90;;;;;;5106327;28;20622;-87
2022/05/29 08:33:34;;;;;;;0.80;0.80;;;12.20;79.50;;;;;;5108467;28;20613;-85
2022/05/29 08:36:06;;;;;;;0.53;0.53;;;12.00;80.10;;;;;;5105100;28;21371;-86
2022/05/29 08:38:34;;;;;;;0.90;0.90;;;12.40;78.80;;;;;;5106478;28;20692;-86
2022/05/29 08:41:03;;;;;;;1.00;0.90;;;12.40;78.60;;;;;;5101595;28;20740;-84
2022/05/29 08:43:39;;;;;;;2.70;1.20;;;12.30;78.10;;;;;;5097530;28;20621;-85
2022/05/29 08:46:18;;;;;;;0.77;0.77;;;12.00;80.10;;;;;;5107654;28;20620;-86
2022/05/29 08:48:46;;;;;;;1.13;0.97;;;12.00;78.90;;;;;;5106168;28;21081;-87
2022/05/29 08:51:40;;;;;;;1.00;0.57;;;11.90;79.10;;;;;;5110526;28;20652;-87
2022/05/29 08:54:13;;;;;;;1.23;0.50;;;11.60;79.90;;;;;;5091787;28;20633;-85
2022/05/29 08:56:46;;;;;;;1.47;1.37;;;11.60;81.10;;;;;;5093424;28;20707;-86
2022/05/29 08:59:20;;;;;;;0.70;0.70;;;11.60;80.80;;;;;;5092045;28;20627;-85
2022/05/29 09:01:57;;;;;;;1.87;1.17;;;11.60;83.20;;;;;;5104475;28;20635;-86
2022/05/29 09:04:31;;;;;;;4.63;1.63;;;11.60;81.00;;;;;;5111140;28;20759;-85
2022/05/29 09:07:01;;;;;;;1.83;0.83;;;11.80;81.60;;;;;;5098279;28;20659;-87
2022/05/29 09:09:34;;;;;;;1.33;1.23;;;11.70;81.50;;;;;;5111036;28;20713;-86
2022/05/29 09:12:05;;;;;;;0.87;0.73;;;11.90;81.40;;;;;;5093137;27;21120;-87
2022/05/29 09:14:40;;;;;;;1.00;0.73;;;11.70;80.30;;;;;;5104543;28;20650;-85
2022/05/29 09:17:13;;;;;;;1.30;1.20;;;11.40;81.00;;;;;;5101376;28;20698;-86
2022/05/29 09:19:45;;;;;;;0.90;0.70;;;11.60;81.90;;;;;;5095390;28;20623;-86
2022/05/29 09:22:19;;;;;;;3.00;1.63;;;11.80;82.50;;;;;;5100667;28;20664;-86
2022/05/29 09:25:02;;;;;;;0.53;0.53;;;11.80;81.90;;;;;;5111096;28;20663;-86
2022/05/29 09:27:30;;;;;;;0.93;0.83;;;11.80;81.60;;;;;;5090632;28;20625;-86
2022/05/29 09:29:57;;;;;;;1.20;1.17;;;11.70;80.50;;;;;;5091041;28;20627;-86
2022/05/29 09:32:26;;;;;;;0.70;0.70;;;11.80;81.30;;;;;;5089771;28;20718;-86
2022/05/29 09:35:04;;;;;;;1.03;1.03;;;11.80;81.50;;;;;;5090636;28;20617;-86
2022/05/29 09:37:41;;;;;;;0.83;0.83;;;11.80;80.50;;;;;;5100697;28;20719;-86
2022/05/29 09:40:15;;;;;;;1.60;0.70;;;12.10;79.50;;;;;;5094462;28;20625;-85
2022/05/29 09:42:43;;;;;;;0.60;0.37;;;12.20;80.00;;;;;;5106811;28;20734;-85
2022/05/29 09:45:15;;;;;;;0.87;0.80;;;12.30;79.30;;;;;;5090763;28;20669;-85
2022/05/29 09:50:46;;;;;;;1.67;0.50;;;13.00;76.40;;;;;;5103166;28;20618;-87
2022/05/29 09:53:18;;;;;;;1.33;0.80;;;13.20;75.10;;;;;;5109642;28;20731;-85
2022/05/29 09:55:55;;;;;;;2.30;1.47;;;13.60;75.40;;;;;;5097784;28;20632;-86
2022/05/29 09:58:29;;;;;;;0.80;0.73;;;14.00;74.40;;;;;;5106609;28;20627;-85
2022/05/29 10:01:01;;;;;;;1.33;0.73;;;13.90;70.20;;;;;;5097297;27;20704;-85
2022/05/29 10:03:40;;;;;;;0.90;0.70;;;14.10;69.20;;;;;;5091001;28;20648;-85
2022/05/29 10:06:18;;;;;;;6.40;1.10;;;14.30;70.90;;;;;;5102466;28;20697;-85
2022/05/29 10:08:46;;;;;;;0.73;0.70;;;14.50;74.20;;;;;;5094549;27;20670;-85
2022/05/29 10:11:16;;;;;;;0.40;0.40;;;14.40;71.80;;;;;;5091232;28;20620;-86
2022/05/29 10:13:44;;;;;;;0.80;0.80;;;14.00;67.70;;;;;;5098987;28;20627;-85
2022/05/29 10:16:12;;;;;;;0.40;0.40;;;14.10;68.40;;;;;;5096509;28;20710;-84
2022/05/29 10:18:41;;;;;;;0.70;0.70;;;13.80;71.20;;;;;;5102165;28;20615;-85
2022/05/29 10:21:14;;;;;;;1.80;0.50;;;13.70;70.50;;;;;;5105075;28;20737;-85
2022/05/29 10:23:41;;;;;;;0.90;0.80;;;13.50;71.50;;;;;;5097920;27;20625;-85
2022/05/29 10:26:16;;;;;;;1.33;0.90;;;13.00;72.90;;;;;;5092845;28;20735;-85
2022/05/29 10:28:44;;;;;;;2.83;1.17;;;13.00;74.40;;;;;;5093220;27;20686;-85
2022/05/29 10:31:20;;;;;;;1.03;0.97;;;12.80;73.50;;;;;;5093481;28;21003;-83
2022/05/29 10:34:03;;;;;;;2.87;1.73;;;13.50;75.50;;;;;;5108179;28;20627;-85
2022/05/29 10:36:31;;;;;;;1.00;0.67;;;12.50;74.90;;;;;;5089750;28;20720;-84
2022/05/29 10:39:08;;;;;;;0.73;0.73;;;12.40;75.50;;;;;;5106274;28;20627;-84
2022/05/29 10:41:38;;;;;;;1.17;1.07;;;12.20;77.90;;;;;;5107685;28;20631;-85
2022/05/29 10:44:06;;;;;;;1.30;1.20;;;12.20;77.70;;;;;;5093033;28;20626;-85
2022/05/29 10:46:45;;;;;;;0.70;0.70;;;12.00;79.20;;;;;;5089979;28;20663;-85
2022/05/29 10:49:20;;;;;;;1.10;1.10;;;12.10;79.40;;;;;;5105048;28;20675;-85
2022/05/29 10:52:36;;;;;;;0.87;0.70;;;12.20;79.00;;;;;;5100928;28;20639;-85
2022/05/29 10:55:19;;;;;;;0.60;0.50;;;12.00;78.40;;;;;;5047622;28;21180;-86
2022/05/29 10:58:04;;;;;;;0.90;0.60;;;12.10;78.80;;;;;;5045041;28;20628;-85
2022/05/29 11:00:38;;;;;;;0.63;0.63;;;12.30;78.10;;;;;;5074802;28;20750;-86
2022/05/29 11:03:46;;;;;;;0.93;0.93;;;12.30;77.50;;;;;;5088911;28;20634;-85
2022/05/29 11:06:40;;;;;;;0.83;0.50;;;12.50;77.30;;;;;;5087931;28;20690;-85
2022/05/29 11:09:41;;;;;;;0.77;0.60;;;12.40;77.70;;;;;;5097690;28;20688;-85
2022/05/29 11:12:21;;;;;;;1.17;1.00;;;12.20;76.50;;;;;;5064569;27;20666;-85
2022/05/29 11:15:08;;;;;;;1.10;0.80;;;12.40;77.70;;;;;;5089219;28;20623;-85
2022/05/29 11:17:48;;;;;;;1.07;1.00;;;13.00;76.30;;;;;;5105079;28;20665;-84
2022/05/29 11:20:34;;;;;;;0.50;0.50;;;13.30;76.80;;;;;;5102805;28;20623;-85
2022/05/29 11:23:20;;;;;;;0.30;0.30;;;13.40;73.90;;;;;;5108191;28;20721;-85
2022/05/29 11:25:58;;;;;;;0.60;0.60;;;13.30;72.20;;;;;;5102637;28;20659;-85
2022/05/29 11:28:55;;;;;;;0.70;0.70;;;13.80;73.20;;;;;;5108386;28;20633;-85
2022/05/29 11:31:35;;;;;;;0.43;0.40;;;13.50;69.80;;;;;;5099110;28;21267;-86
2022/05/29 11:34:25;;;;;;;0.87;0.83;;;14.10;71.80;;;;;;5089003;28;20648;-85
2022/05/29 11:37:07;;;;;;;0.60;0.60;;;14.30;67.10;;;;;;5096657;28;20623;-86
2022/05/29 11:39:41;;;;;;;2.07;0.60;;;13.50;68.50;;;;;;5109265;28;20734;-84
2022/05/29 11:42:17;;;;;;;1.30;1.20;;;13.50;69.70;;;;;;5100247;28;20609;-85
2022/05/29 11:44:51;;;;;;;0.60;0.60;;;13.30;68.40;;;;;;5089286;28;21009;-84
2022/05/29 11:53:20;;;;;;;0.60;0.60;;;15.40;68.40;;;;;;5096270;28;20639;-84
2022/05/29 11:55:50;;;;;;;0.80;0.80;;;16.50;63.10;;;;;;5108356;28;20719;-86
2022/05/29 11:58:21;;;;;;;0.43;0.40;;;16.90;61.10;;;;;;5103770;28;20624;-84
2022/05/29 12:00:54;;;;;;;1.23;0.50;;;17.20;60.30;;;;;;5087038;28;20730;-83
2022/05/29 12:03:36;;;;;;;0.40;0.40;;;17.30;58.80;;;;;;5107286;28;20663;-84
2022/05/29 12:06:10;;;;;;;2.43;0.50;;;17.30;58.60;;;;;;5090808;28;20652;-85
2022/05/29 12:08:47;;;;;;;0.80;0.80;;;16.00;58.00;;;;;;5096939;28;20654;-85
2022/05/29 12:11:28;;;;;;;1.00;0.73;;;15.30;60.00;;;;;;5108217;28;20662;-84
2022/05/29 12:14:00;;;;;;;0.50;0.50;;;15.40;61.30;;;;;;5107568;28;21268;-85
2022/05/29 12:16:29;;;;;;;0.60;0.60;;;15.20;62.10;;;;;;5106919;28;20679;-83
2022/05/29 12:19:01;;;;;;;0.67;0.53;;;15.00;63.50;;;;;;5090302;28;20628;-86
2022/05/29 12:21:34;;;;;;;0.83;0.80;;;15.00;63.70;;;;;;5094955;28;20676;-84
2022/05/29 12:24:03;;;;;;;1.10;1.00;;;15.20;67.60;;;;;;5111321;28;20727;-84
2022/05/29 12:26:39;;;;;;;0.57;0.53;;;16.00;66.30;;;;;;5093788;28;20770;-84
2022/05/29 12:29:11;;;;;;;0.67;0.67;;;17.90;65.40;;;;;;5091707;28;20828;-87
2022/05/29 12:31:41;;;;;;;0.97;0.87;;;18.00;61.80;;;;;;5109320;28;20632;-84
2022/05/29 12:34:17;;;;;;;0.60;0.60;;;17.50;61.90;;;;;;5110517;28;20634;-84
2022/05/29 12:37:05;;;;;;;0.90;0.77;;;16.70;63.50;;;;;;5106398;28;20623;-86
2022/05/29 12:39:48;;;;;;;0.60;0.60;;;16.20;64.30;;;;;;5112020;28;21015;-85
2022/05/29 12:42:29;;;;;;;1.33;1.03;;;15.70;66.00;;;;;;5096300;28;20652;-84
2022/05/29 12:45:17;;;;;;;0.80;0.63;;;15.50;67.10;;;;;;5092144;28;20613;-84
2022/05/29 12:48:14;;;;;;;0.53;0.50;;;15.50;66.50;;;;;;5105855;28;20672;-84
2022/05/29 12:51:05;;;;;;;1.70;0.97;;;15.20;66.30;;;;;;5102660;28;20655;-84
2022/05/29 12:54:07;;;;;;;0.50;0.50;;;15.20;66.50;;;;;;5104655;28;21185;-83
2022/05/29 12:56:53;;;;;;;0.90;0.80;;;16.30;66.90;;;;;;5090429;28;20626;-83
2022/05/29 12:59:49;;;;;;;0.90;0.80;;;17.70;65.60;;;;;;5091122;28;20628;-84
2022/05/29 13:02:27;;;;;;;0.80;0.73;;;18.00;59.30;;;;;;5090419;28;20742;-84
2022/05/29 13:05:19;;;;;;;0.50;0.50;;;17.50;59.50;;;;;;5093950;28;20726;-83
2022/05/29 13:08:11;;;;;;;0.63;0.60;;;16.90;59.20;;;;;;5096197;28;20721;-85
2022/05/29 13:10:42;;;;;;;0.73;0.70;;;17.30;61.00;;;;;;5091535;28;20652;-85
2022/05/29 13:13:13;;;;;;;0.90;0.90;;;17.50;58.60;;;;;;5092306;28;20670;-84
2022/05/29 13:15:42;;;;;;;0.50;0.40;;;17.00;59.60;;;;;;5091214;28;20616;-84
2022/05/29 13:18:26;;;;;;;0.47;0.40;;;16.50;60.20;;;;;;5091698;28;20636;-84
2022/05/29 13:21:09;;;;;;;1.00;0.90;;;16.00;62.20;;;;;;5095429;28;20659;-84
2022/05/29 13:23:39;;;;;;;0.80;0.80;;;15.80;62.80;;;;;;5093633;28;20643;-84
2022/05/29 13:26:22;;;;;;;0.67;0.67;;;15.50;64.70;;;;;;5109934;28;21064;-83
2022/05/29 13:28:56;;;;;;;0.50;0.47;;;17.20;64.80;;;;;;5108436;28;20659;-83
2022/05/29 13:31:24;;;;;;;1.70;0.70;;;19.00;60.60;;;;;;5108596;28;20715;-84
2022/05/29 13:34:07;;;;;;;0.60;0.53;;;20.60;57.00;;;;;;5103378;28;20748;-85
2022/05/29 13:37:09;;;;;;;0.80;0.67;;;22.00;54.50;;;;;;5089969;28;20721;-84
2022/05/29 13:39:59;;;;;;;0.60;0.60;;;23.00;51.70;;;;;;5104043;28;20631;-85
2022/05/29 13:42:41;;;;;;;0.77;0.60;;;23.70;49.20;;;;;;5099595;28;20634;-84
2022/05/29 13:45:42;;;;;;;0.80;0.80;;;24.50;47.10;;;;;;5097298;28;20659;-84
2022/05/29 13:48:18;;;;;;;0.67;0.67;;;24.10;45.30;;;;;;5102152;28;21179;-86
2022/05/29 13:50:51;;;;;;;1.23;0.97;;;21.90;48.10;;;;;;5090934;28;20624;-84